createdAt,value
2018-05-11T00:00:46.948Z,13.3
2018-05-11T00:01:37.037Z,13.3
2018-05-11T00:02:27.081Z,13.3
2018-05-11T00:03:17.141Z,13.3
2018-05-11T00:04:07.201Z,13.3
2018-05-11T00:04:57.297Z,13.2
2018-05-11T00:05:47.356Z,13.2
2018-05-11T00:06:37.417Z,13.2
2018-05-11T00:07:27.458Z,13.1
2018-05-11T00:08:17.526Z,13.1
2018-05-11T00:09:07.303Z,13.1
2018-05-11T00:09:57.357Z,13.1
2018-05-11T00:10:47.736Z,13.1
2018-05-11T00:11:37.771Z,13.1
2018-05-11T00:12:27.575Z,13.1
2018-05-11T00:13:17.631Z,13
2018-05-11T00:14:07.964Z,13
2018-05-11T00:14:58.049Z,13
2018-05-11T00:15:48.092Z,13
2018-05-11T00:16:38.166Z,12.9
2018-05-11T00:17:28.219Z,12.9
2018-05-11T00:18:18.297Z,12.9
2018-05-11T00:19:08.344Z,12.9
2018-05-11T00:19:58.426Z,12.9
2018-05-11T00:20:47.906Z,12.9
2018-05-11T00:21:38.546Z,12.9
2018-05-11T00:22:28.594Z,12.9
2018-05-11T00:23:18.736Z,12.9
2018-05-11T00:24:08.747Z,12.9
2018-05-11T00:24:58.794Z,12.9
2018-05-11T00:25:48.297Z,12.9
2018-05-11T00:26:38.909Z,12.9
2018-05-11T00:27:28.689Z,12.9
2018-05-11T00:28:19.054Z,12.9
2018-05-11T00:29:08.839Z,12.9
2018-05-11T00:29:59.177Z,12.8
2018-05-11T00:30:49.252Z,12.8
2018-05-11T00:31:39.299Z,12.8
2018-05-11T00:32:29.363Z,12.8
2018-05-11T00:33:19.152Z,12.8
2018-05-11T00:34:09.480Z,12.8
2018-05-11T00:34:59.558Z,12.8
2018-05-11T00:35:49.623Z,12.8
2018-05-11T00:36:39.673Z,12.8
2018-05-11T00:37:29.772Z,12.8
2018-05-11T00:38:19.599Z,12.7
2018-05-11T00:39:09.859Z,12.7
2018-05-11T00:39:59.943Z,12.7
2018-05-11T00:40:50.009Z,12.7
2018-05-11T00:41:39.775Z,12.7
2018-05-11T00:42:30.144Z,12.7
2018-05-11T00:43:20.186Z,12.7
2018-05-11T00:44:09.680Z,12.6
2018-05-11T00:45:00.023Z,12.6
2018-05-11T00:45:50.371Z,12.6
2018-05-11T00:46:40.433Z,12.7
2018-05-11T00:47:30.219Z,12.6
2018-05-11T00:48:20.563Z,12.6
2018-05-11T00:49:10.629Z,12.7
2018-05-11T00:50:00.427Z,12.6
2018-05-11T00:50:50.749Z,12.6
2018-05-11T00:51:40.275Z,12.6
2018-05-11T00:52:30.882Z,12.6
2018-05-11T00:53:20.948Z,12.6
2018-05-11T00:54:11.003Z,12.6
2018-05-11T00:55:01.080Z,12.6
2018-05-11T00:55:50.901Z,12.6
2018-05-11T00:56:41.190Z,12.6
2018-05-11T00:57:31.258Z,12.6
2018-05-11T00:58:21.044Z,12.6
2018-05-11T00:59:11.377Z,12.6
2018-05-11T01:00:01.171Z,12.6
2018-05-11T01:00:51.533Z,12.6
2018-05-11T01:01:41.582Z,12.6
2018-05-11T01:02:31.651Z,12.6
2018-05-11T01:03:21.147Z,12.6
2018-05-11T01:04:11.482Z,12.6
2018-05-11T01:05:01.826Z,12.6
2018-05-11T01:05:51.968Z,12.6
2018-05-11T01:06:41.949Z,12.6
2018-05-11T01:07:32.011Z,12.6
2018-05-11T01:08:21.230Z,12.6
2018-05-11T01:09:11.856Z,12.5
2018-05-11T01:10:01.961Z,12.5
2018-05-11T01:10:52.306Z,12.5
2018-05-11T01:11:42.053Z,12.5
2018-05-11T01:12:32.129Z,12.5
2018-05-11T01:13:22.186Z,12.5
2018-05-11T01:14:12.226Z,12.5
2018-05-11T01:15:02.311Z,12.5
2018-05-11T01:15:52.079Z,12.5
2018-05-11T01:16:42.725Z,12.4
2018-05-11T01:17:32.785Z,12.4
2018-05-11T01:18:22.564Z,12.4
2018-05-11T01:19:12.889Z,12.4
2018-05-11T01:20:02.964Z,12.4
2018-05-11T01:20:52.746Z,12.4
2018-05-11T01:21:43.116Z,12.4
2018-05-11T01:22:33.147Z,12.4
2018-05-11T01:23:23.222Z,12.4
2018-05-11T01:24:13.269Z,12.4
2018-05-11T01:25:03.359Z,12.4
2018-05-11T01:25:53.437Z,12.4
2018-05-11T01:26:43.204Z,12.4
2018-05-11T01:27:33.244Z,12.4
2018-05-11T01:28:23.617Z,12.4
2018-05-11T01:29:13.655Z,12.3
2018-05-11T01:30:03.740Z,12.4
2018-05-11T01:30:53.805Z,12.3
2018-05-11T01:31:43.861Z,12.3
2018-05-11T01:32:33.922Z,12.3
2018-05-11T01:33:23.694Z,12.3
2018-05-11T01:34:14.064Z,12.3
2018-05-11T01:35:03.819Z,12.3
2018-05-11T01:35:53.608Z,12.3
2018-05-11T01:36:44.239Z,12.3
2018-05-11T01:37:34.295Z,12.3
2018-05-11T01:38:24.072Z,12.3
2018-05-11T01:39:14.410Z,12.3
2018-05-11T01:40:04.201Z,12.3
2018-05-11T01:40:54.559Z,12.3
2018-05-11T01:41:44.630Z,12.3
2018-05-11T01:42:34.760Z,12.3
2018-05-11T01:43:24.757Z,12.3
2018-05-11T01:44:14.542Z,12.3
2018-05-11T01:45:04.600Z,12.3
2018-05-11T01:45:54.922Z,12.3
2018-05-11T01:46:44.422Z,12.3
2018-05-11T01:47:34.779Z,12.3
2018-05-11T01:48:25.139Z,12.3
2018-05-11T01:49:15.187Z,12.3
2018-05-11T01:50:05.244Z,12.3
2018-05-11T01:50:55.308Z,12.3
2018-05-11T01:51:45.368Z,12.3
2018-05-11T01:52:35.425Z,12.3
2018-05-11T01:53:25.572Z,12.3
2018-05-11T01:54:15.294Z,12.3
2018-05-11T01:55:05.646Z,12.3
2018-05-11T01:55:55.417Z,12.3
2018-05-11T01:56:45.750Z,12.3
2018-05-11T01:57:35.261Z,12.3
2018-05-11T01:58:25.874Z,12.3
2018-05-11T01:59:15.939Z,12.3
2018-05-11T02:00:06.008Z,12.3
2018-05-11T02:00:55.865Z,12.3
2018-05-11T02:01:46.132Z,12.3
2018-05-11T02:02:36.192Z,12.3
2018-05-11T02:03:26.269Z,12.3
2018-05-11T02:04:16.308Z,12.3
2018-05-11T02:05:06.396Z,12.3
2018-05-11T02:05:56.179Z,12.3
2018-05-11T02:06:46.500Z,12.3
2018-05-11T02:07:36.313Z,12.3
2018-05-11T02:08:26.340Z,12.3
2018-05-11T02:09:16.709Z,12.3
2018-05-11T02:10:06.495Z,12.3
2018-05-11T02:10:56.826Z,12.3
2018-05-11T02:11:46.601Z,12.3
2018-05-11T02:12:36.943Z,12.3
2018-05-11T02:13:26.745Z,12.3
2018-05-11T02:14:17.087Z,12.3
2018-05-11T02:15:06.571Z,12.3
2018-05-11T02:15:57.212Z,12.3
2018-05-11T02:16:47.254Z,12.3
2018-05-11T02:17:37.066Z,12.3
2018-05-11T02:18:27.406Z,12.3
2018-05-11T02:19:17.459Z,12.3
2018-05-11T02:20:07.519Z,12.3
2018-05-11T02:20:57.311Z,12.3
2018-05-11T02:21:47.361Z,12.3
2018-05-11T02:22:37.501Z,12.3
2018-05-11T02:23:27.511Z,12.3
2018-05-11T02:24:17.843Z,12.3
2018-05-11T02:25:07.907Z,12.3
2018-05-11T02:25:57.470Z,12.3
2018-05-11T02:26:47.745Z,12.3
2018-05-11T02:27:37.567Z,12.3
2018-05-11T02:28:28.150Z,12.3
2018-05-11T02:29:18.225Z,12.3
2018-05-11T02:30:08.279Z,12.3
2018-05-11T02:30:58.370Z,12.3
2018-05-11T02:31:48.401Z,12.3
2018-05-11T02:32:38.466Z,12.3
2018-05-11T02:33:28.547Z,12.2
2018-05-11T02:34:18.629Z,12.2
2018-05-11T02:35:08.380Z,12.3
2018-05-11T02:35:58.451Z,12.3
2018-05-11T02:36:48.795Z,12.2
2018-05-11T02:37:38.873Z,12.2
2018-05-11T02:38:28.946Z,12.2
2018-05-11T02:39:18.965Z,12.2
2018-05-11T02:40:09.044Z,12.2
2018-05-11T02:40:59.131Z,12.2
2018-05-11T02:41:48.900Z,12.2
2018-05-11T02:42:39.353Z,12.2
2018-05-11T02:43:29.403Z,12.2
2018-05-11T02:44:19.368Z,12.2
2018-05-11T02:45:09.409Z,12.2
2018-05-11T02:45:59.487Z,12.2
2018-05-11T02:46:49.543Z,12.2
2018-05-11T02:47:39.602Z,12.2
2018-05-11T02:48:29.682Z,12.2
2018-05-11T02:49:19.752Z,12.2
2018-05-11T02:50:09.815Z,12.1
2018-05-11T02:50:59.878Z,12.2
2018-05-11T02:51:49.911Z,12.1
2018-05-11T02:52:40.011Z,12.1
2018-05-11T02:53:30.043Z,12.1
2018-05-11T02:54:19.852Z,12.1
2018-05-11T02:55:10.176Z,12.1
2018-05-11T02:56:00.274Z,12.1
2018-05-11T02:56:50.311Z,12.1
2018-05-11T02:57:40.358Z,12.1
2018-05-11T02:58:30.432Z,12.1
2018-05-11T02:59:20.497Z,12.1
2018-05-11T03:00:10.554Z,12.1
2018-05-11T03:01:00.337Z,12.1
2018-05-11T03:01:50.388Z,12.1
2018-05-11T03:02:40.739Z,12.1
2018-05-11T03:03:30.815Z,12.1
2018-05-11T03:04:20.580Z,12.1
2018-05-11T03:05:10.659Z,12.1
2018-05-11T03:06:00.998Z,12.1
2018-05-11T03:06:51.064Z,12.1
2018-05-11T03:07:41.150Z,12.1
2018-05-11T03:08:30.911Z,12.1
2018-05-11T03:09:21.244Z,12.1
2018-05-11T03:10:11.307Z,12.1
2018-05-11T03:11:01.381Z,12.1
2018-05-11T03:11:51.461Z,12.1
2018-05-11T03:12:41.516Z,12.1
2018-05-11T03:13:31.582Z,12.1
2018-05-11T03:14:21.351Z,12.1
2018-05-11T03:15:11.705Z,12.1
2018-05-11T03:16:01.497Z,12.1
2018-05-11T03:16:51.813Z,12.1
2018-05-11T03:17:41.881Z,12.1
2018-05-11T03:18:32.410Z,12.1
2018-05-11T03:19:22.020Z,12.1
2018-05-11T03:20:12.137Z,12.1
2018-05-11T03:21:01.875Z,12.1
2018-05-11T03:21:52.191Z,12.1
2018-05-11T03:22:42.253Z,12.1
2018-05-11T03:23:32.043Z,12.1
2018-05-11T03:24:22.387Z,12.1
2018-05-11T03:25:12.414Z,12.1
2018-05-11T03:26:02.320Z,12.1
2018-05-11T03:26:52.580Z,12.1
2018-05-11T03:27:42.636Z,12.1
2018-05-11T03:28:32.708Z,12.1
2018-05-11T03:29:22.476Z,12.1
2018-05-11T03:30:12.612Z,12.1
2018-05-11T03:31:11.904Z,85
2018-05-11T03:32:01.436Z,12.1
2018-05-11T03:32:51.753Z,12.2
2018-05-11T03:33:41.554Z,12.2
2018-05-11T03:34:31.909Z,12.1
2018-05-11T03:35:21.960Z,12.2
2018-05-11T03:36:12.016Z,12.2
2018-05-11T03:37:02.101Z,12.2
2018-05-11T03:37:51.868Z,12.2
2018-05-11T03:38:42.214Z,12.2
2018-05-11T03:39:32.278Z,12.2
2018-05-11T03:40:22.336Z,12.2
2018-05-11T03:41:12.404Z,12.2
2018-05-11T03:42:02.204Z,12.2
2018-05-11T03:42:52.519Z,12.2
2018-05-11T03:43:42.596Z,12.2
2018-05-11T03:44:32.638Z,12.2
2018-05-11T03:45:22.428Z,12.3
2018-05-11T03:46:12.774Z,12.3
2018-05-11T03:47:02.841Z,12.3
2018-05-11T03:47:52.912Z,12.3
2018-05-11T03:48:42.971Z,12.3
2018-05-11T03:49:33.022Z,12.3
2018-05-11T03:50:22.814Z,12.3
2018-05-11T03:51:12.863Z,12.3
2018-05-11T03:52:03.239Z,12.4
2018-05-11T03:52:53.289Z,12.4
2018-05-11T03:53:43.360Z,12.4
2018-05-11T03:54:33.400Z,12.4
2018-05-11T03:55:23.458Z,12.4
2018-05-11T03:56:13.517Z,12.4
2018-05-11T03:57:03.594Z,12.4
2018-05-11T03:57:53.382Z,12.4
2018-05-11T03:58:43.721Z,12.4
2018-05-11T03:59:33.780Z,12.4
2018-05-11T04:00:23.845Z,12.4
2018-05-11T04:01:14.008Z,12.4
2018-05-11T04:02:03.990Z,12.4
2018-05-11T04:02:53.758Z,12.5
2018-05-11T04:03:44.121Z,12.5
2018-05-11T04:04:34.181Z,12.5
2018-05-11T04:05:24.246Z,12.5
2018-05-11T04:06:14.002Z,12.5
2018-05-11T04:07:04.359Z,12.5
2018-05-11T04:07:54.405Z,12.6
2018-05-11T04:08:44.478Z,12.5
2018-05-11T04:09:34.286Z,12.6
2018-05-11T04:10:24.596Z,12.6
2018-05-11T04:11:14.663Z,12.6
2018-05-11T04:12:04.755Z,12.6
2018-05-11T04:12:54.790Z,12.6
2018-05-11T04:13:44.863Z,12.6
2018-05-11T04:14:34.655Z,12.6
2018-05-11T04:15:24.979Z,12.6
2018-05-11T04:16:14.785Z,12.6
2018-05-11T04:17:05.113Z,12.7
2018-05-11T04:17:55.188Z,12.7
2018-05-11T04:18:45.239Z,12.7
2018-05-11T04:19:35.300Z,12.7
2018-05-11T04:20:25.378Z,12.8
2018-05-11T04:21:15.154Z,12.8
2018-05-11T04:22:05.493Z,12.8
2018-05-11T04:22:55.559Z,12.8
2018-05-11T04:23:45.631Z,12.8
2018-05-11T04:24:35.680Z,12.8
2018-05-11T04:25:25.468Z,12.8
2018-05-11T04:26:15.543Z,12.8
2018-05-11T04:27:05.864Z,12.8
2018-05-11T04:27:55.641Z,12.8
2018-05-11T04:28:45.999Z,12.8
2018-05-11T04:29:36.086Z,12.8
2018-05-11T04:30:25.566Z,12.8
2018-05-11T04:31:16.188Z,12.8
2018-05-11T04:32:06.268Z,12.9
2018-05-11T04:32:56.313Z,12.9
2018-05-11T04:33:46.113Z,12.9
2018-05-11T04:34:36.426Z,12.9
2018-05-11T04:35:26.231Z,12.9
2018-05-11T04:36:16.603Z,12.9
2018-05-11T04:37:06.630Z,13
2018-05-11T04:37:56.688Z,13
2018-05-11T04:38:46.749Z,13
2018-05-11T04:39:36.813Z,13
2018-05-11T04:40:26.883Z,13.1
2018-05-11T04:41:16.935Z,13.1
2018-05-11T04:42:07.017Z,13.1
2018-05-11T04:42:57.072Z,13.1
2018-05-11T04:43:47.128Z,13.1
2018-05-11T04:44:36.904Z,13.1
2018-05-11T04:45:27.263Z,13.2
2018-05-11T04:46:17.126Z,13.3
2018-05-11T04:47:07.386Z,13.3
2018-05-11T04:47:57.173Z,13.4
2018-05-11T04:48:47.527Z,13.4
2018-05-11T04:49:37.562Z,13.5
2018-05-11T04:50:27.699Z,13.6
2018-05-11T04:51:17.697Z,13.7
2018-05-11T04:52:07.754Z,13.8
2018-05-11T04:52:57.811Z,13.9
2018-05-11T04:53:47.887Z,13.9
2018-05-11T04:54:37.934Z,14.1
2018-05-11T04:55:27.735Z,14.2
2018-05-11T04:56:17.799Z,14.3
2018-05-11T04:57:08.132Z,14.4
2018-05-11T04:57:58.200Z,14.6
2018-05-11T04:58:48.264Z,14.7
2018-05-11T04:59:38.349Z,14.9
2018-05-11T05:00:28.391Z,15
2018-05-11T05:01:18.475Z,15.2
2018-05-11T05:02:08.509Z,15.3
2018-05-11T05:02:58.571Z,15.5
2018-05-11T05:03:48.654Z,15.7
2018-05-11T05:04:38.702Z,15.9
2018-05-11T05:05:28.761Z,16.1
2018-05-11T05:06:18.817Z,16.3
2018-05-11T05:07:09.007Z,16.4
2018-05-11T05:07:58.383Z,16.6
2018-05-11T05:08:48.743Z,16.8
2018-05-11T05:09:39.098Z,16.9
2018-05-11T05:10:29.173Z,17.1
2018-05-11T05:11:19.207Z,17.3
2018-05-11T05:12:09.269Z,17.4
2018-05-11T05:12:58.848Z,17.5
2018-05-11T05:13:49.101Z,17.6
2018-05-11T05:14:39.178Z,17.6
2018-05-11T05:15:29.223Z,17.8
2018-05-11T05:16:18.807Z,17.8
2018-05-11T05:17:09.448Z,17.9
2018-05-11T05:17:59.713Z,18
2018-05-11T05:18:49.779Z,18.1
2018-05-11T05:19:39.274Z,18.1
2018-05-11T05:20:29.411Z,18.2
2018-05-11T05:21:19.966Z,18.3
2018-05-11T05:22:10.011Z,18.3
2018-05-11T05:23:00.097Z,18.3
2018-05-11T05:23:50.155Z,18.4
2018-05-11T05:24:40.231Z,18.4
2018-05-11T05:25:30.279Z,18.6
2018-05-11T05:26:20.333Z,18.6
2018-05-11T05:27:10.387Z,18.8
2018-05-11T05:28:00.467Z,18.9
2018-05-11T05:28:50.523Z,19
2018-05-11T05:29:40.585Z,19.2
2018-05-11T05:30:30.643Z,19.4
2018-05-11T05:31:20.428Z,19.6
2018-05-11T05:32:10.794Z,19.8
2018-05-11T05:33:01.017Z,20.1
2018-05-11T05:33:50.909Z,20.3
2018-05-11T05:34:40.968Z,20.4
2018-05-11T05:35:31.035Z,20.5
2018-05-11T05:36:20.810Z,20.6
2018-05-11T05:37:11.150Z,20.8
2018-05-11T05:38:00.649Z,20.8
2018-05-11T05:38:51.269Z,20.9
2018-05-11T05:39:41.066Z,20.9
2018-05-11T05:40:31.405Z,21
2018-05-11T05:41:21.472Z,21.1
2018-05-11T05:42:11.519Z,21.1
2018-05-11T05:43:01.584Z,21.1
2018-05-11T05:44:41.249Z,21.2
2018-05-11T05:45:31.773Z,21.2
2018-05-11T05:46:21.555Z,21.3
2018-05-11T05:47:11.630Z,21.3
2018-05-11T05:48:01.949Z,21.3
2018-05-11T05:48:52.028Z,21.4
2018-05-11T05:49:42.080Z,21.4
2018-05-11T05:50:32.153Z,21.5
2018-05-11T05:51:21.943Z,21.6
2018-05-11T05:52:12.295Z,21.7
2018-05-11T05:53:01.783Z,21.8
2018-05-11T05:53:52.400Z,21.9
2018-05-11T05:54:42.469Z,22.1
2018-05-11T05:55:32.533Z,22.2
2018-05-11T05:56:22.344Z,22.4
2018-05-11T05:57:12.394Z,22.5
2018-05-11T05:58:02.161Z,22.7
2018-05-11T05:58:52.768Z,22.8
2018-05-11T05:59:42.844Z,23
2018-05-11T06:00:32.626Z,23.2
2018-05-11T06:01:23.017Z,23.3
2018-05-11T06:02:13.079Z,23.4
2018-05-11T06:03:02.828Z,23.6
2018-05-11T06:03:52.895Z,24.5
2018-05-11T06:04:43.784Z,24.9
2018-05-11T06:05:33.305Z,24.6
2018-05-11T06:06:23.345Z,24
2018-05-11T06:07:13.150Z,23.8
2018-05-11T06:08:03.488Z,24.2
2018-05-11T06:08:53.545Z,24.8
2018-05-11T06:09:43.593Z,25.4
2018-05-11T06:10:33.674Z,26
2018-05-11T06:11:23.740Z,26.4
2018-05-11T06:12:13.531Z,26.6
2018-05-11T06:13:03.875Z,26.7
2018-05-11T06:13:53.927Z,26.8
2018-05-11T06:14:43.977Z,27
2018-05-11T06:15:33.935Z,27.3
2018-05-11T06:16:24.190Z,27.4
2018-05-11T06:17:13.882Z,27.6
2018-05-11T06:18:04.234Z,27.8
2018-05-11T06:19:44.365Z,27.9
2018-05-11T06:20:34.418Z,28.1
2018-05-11T06:21:24.474Z,28.2
2018-05-11T06:22:14.275Z,28.3
2018-05-11T06:23:04.611Z,28.5
2018-05-11T06:23:54.672Z,28.6
2018-05-11T06:24:44.932Z,28.8
2018-05-11T06:25:34.539Z,28.9
2018-05-11T06:26:24.866Z,29.1
2018-05-11T06:27:14.944Z,29.3
2018-05-11T06:28:05.009Z,29.4
2018-05-11T06:28:55.072Z,29.6
2018-05-11T06:29:44.841Z,29.6
2018-05-11T06:30:35.173Z,29.6
2018-05-11T06:31:25.240Z,29.6
2018-05-11T06:32:15.033Z,29.6
2018-05-11T06:33:04.816Z,29.6
2018-05-11T06:33:55.452Z,29.6
2018-05-11T06:34:45.528Z,29.5
2018-05-11T06:35:35.553Z,29.5
2018-05-11T06:36:25.611Z,29.4
2018-05-11T06:37:15.717Z,29.4
2018-05-11T06:38:05.482Z,29.4
2018-05-11T06:38:55.536Z,29.4
2018-05-11T06:39:45.603Z,29.4
2018-05-11T06:40:36.190Z,29.4
2018-05-11T06:41:26.001Z,29.4
2018-05-11T06:42:16.060Z,29.4
2018-05-11T06:43:05.851Z,29.3
2018-05-11T06:43:56.187Z,29.4
2018-05-11T06:44:45.757Z,29.3
2018-05-11T06:45:36.315Z,29.3
2018-05-11T06:46:26.372Z,29.3
2018-05-11T06:47:16.446Z,29.3
2018-05-11T06:48:06.526Z,29.3
2018-05-11T06:48:56.572Z,29.3
2018-05-11T06:49:46.342Z,29.1
2018-05-11T06:50:36.724Z,29
2018-05-11T06:51:26.771Z,28.9
2018-05-11T06:52:16.822Z,28.8
2018-05-11T06:53:06.888Z,28.8
2018-05-11T06:53:56.966Z,28.8
2018-05-11T06:54:46.720Z,28.7
2018-05-11T06:55:37.073Z,28.6
2018-05-11T06:56:26.862Z,28.5
2018-05-11T06:57:17.215Z,28.5
2018-05-11T06:58:07.267Z,28.4
2018-05-11T06:58:57.325Z,28.4
2018-05-11T06:59:47.397Z,28.3
2018-05-11T07:00:37.463Z,28.2
2018-05-11T07:01:27.767Z,28.1
2018-05-11T07:02:17.324Z,28
2018-05-11T07:03:07.688Z,27.9
2018-05-11T07:03:57.773Z,27.9
2018-05-11T07:04:47.765Z,27.8
2018-05-11T07:05:37.834Z,27.6
2018-05-11T07:06:27.900Z,27.6
2018-05-11T07:07:18.194Z,27.4
2018-05-11T07:08:07.562Z,27.4
2018-05-11T07:08:58.092Z,27.3
2018-05-11T07:09:48.159Z,27.3
2018-05-11T07:10:38.257Z,27.1
2018-05-11T07:11:28.279Z,27.1
2018-05-11T07:12:18.345Z,27
2018-05-11T07:13:08.398Z,26.9
2018-05-11T07:13:58.183Z,26.9
2018-05-11T07:14:48.258Z,26.9
2018-05-11T07:15:38.611Z,26.9
2018-05-11T07:16:28.652Z,26.8
2018-05-11T07:17:18.736Z,26.8
2018-05-11T07:18:08.506Z,26.8
2018-05-11T07:18:58.848Z,26.8
2018-05-11T07:19:48.945Z,26.9
2018-05-11T07:20:38.977Z,26.9
2018-05-11T07:21:29.036Z,26.9
2018-05-11T07:22:19.111Z,27
2018-05-11T07:23:09.165Z,27.1
2018-05-11T07:23:59.228Z,27.1
2018-05-11T07:24:49.319Z,27.3
2018-05-11T07:25:39.683Z,27.3
2018-05-11T07:26:29.442Z,27.5
2018-05-11T07:27:19.487Z,27.6
2018-05-11T07:28:09.545Z,27.6
2018-05-11T07:28:59.607Z,27.8
2018-05-11T07:30:39.729Z,27.9
2018-05-11T07:31:29.821Z,28.1
2018-05-11T07:32:19.298Z,28.2
2018-05-11T07:33:09.931Z,28.4
2018-05-11T07:33:59.705Z,28.6
2018-05-11T07:34:49.812Z,28.8
2018-05-11T07:35:39.653Z,28.9
2018-05-11T07:36:29.899Z,29.1
2018-05-11T07:37:20.237Z,29.3
2018-05-11T07:38:10.107Z,29.4
2018-05-11T07:38:59.682Z,29.6
2018-05-11T07:39:50.430Z,29.9
2018-05-11T07:40:40.225Z,30.1
2018-05-11T07:41:30.289Z,30.3
2018-05-11T07:42:20.150Z,30.4
2018-05-11T07:43:11.222Z,30.6
2018-05-11T07:44:00.485Z,30.6
2018-05-11T07:44:50.616Z,30.7
2018-05-11T07:45:40.595Z,30.8
2018-05-11T07:46:30.947Z,30.6
2018-05-11T07:47:21.015Z,30.7
2018-05-11T07:48:11.072Z,30.8
2018-05-11T07:49:01.126Z,30.9
2018-05-11T07:49:50.926Z,31
2018-05-11T07:50:41.262Z,31.1
2018-05-11T07:51:31.429Z,31.4
2018-05-11T07:52:21.387Z,31.5
2018-05-11T07:53:11.182Z,31.5
2018-05-11T07:54:01.513Z,31.4
2018-05-11T07:54:51.577Z,31.2
2018-05-11T07:55:41.627Z,31.1
2018-05-11T07:56:31.429Z,31.1
2018-05-11T07:57:21.764Z,31.1
2018-05-11T07:58:11.537Z,31.2
2018-05-11T07:59:01.932Z,31.2
2018-05-11T07:59:51.674Z,31.3
2018-05-11T08:00:42.041Z,31.4
2018-05-11T08:01:31.795Z,31.6
2018-05-11T08:02:22.138Z,31.8
2018-05-11T08:03:11.919Z,31.6
2018-05-11T08:04:02.608Z,31.5
2018-05-11T08:04:52.322Z,31.4
2018-05-11T08:05:42.396Z,31.6
2018-05-11T08:06:32.168Z,31.8
2018-05-11T08:07:22.248Z,31.9
2018-05-11T08:08:12.595Z,32.1
2018-05-11T08:09:02.640Z,32.2
2018-05-11T08:09:52.700Z,32.3
2018-05-11T08:10:42.507Z,32.3
2018-05-11T08:11:32.823Z,32.2
2018-05-11T08:12:22.891Z,32.2
2018-05-11T08:13:12.956Z,32.3
2018-05-11T08:14:03.116Z,32.4
2018-05-11T08:14:53.084Z,32.6
2018-05-11T08:15:42.885Z,32.9
2018-05-11T08:16:33.214Z,33.3
2018-05-11T08:17:23.271Z,33.6
2018-05-11T08:18:13.079Z,33.9
2018-05-11T08:19:03.143Z,33.6
2018-05-11T08:19:53.482Z,33.4
2018-05-11T08:20:43.579Z,33.5
2018-05-11T08:21:33.327Z,33.8
2018-05-11T08:22:23.662Z,34.1
2018-05-11T08:23:13.735Z,34.6
2018-05-11T08:24:03.792Z,35
2018-05-11T08:24:53.575Z,35.6
2018-05-11T08:25:43.338Z,36.2
2018-05-11T08:26:33.843Z,36.8
2018-05-11T08:27:23.750Z,37.6
2018-05-11T08:28:13.624Z,37.9
2018-05-11T08:29:04.192Z,37.8
2018-05-11T08:29:54.238Z,37.7
2018-05-11T08:30:44.008Z,37.8
2018-05-11T08:31:34.177Z,38.1
2018-05-11T08:32:23.847Z,38.3
2018-05-11T08:33:14.506Z,38.6
2018-05-11T08:34:03.981Z,39.2
2018-05-11T08:34:54.429Z,39.9
2018-05-11T08:35:44.641Z,40.5
2018-05-11T08:36:34.763Z,40.5
2018-05-11T08:37:24.333Z,40.1
2018-05-11T08:38:14.913Z,39.8
2018-05-11T08:39:04.240Z,39.6
2018-05-11T08:39:55.011Z,39.5
2018-05-11T08:40:44.567Z,39.6
2018-05-11T08:41:35.119Z,40
2018-05-11T08:42:25.174Z,40.8
2018-05-11T08:43:14.955Z,41.4
2018-05-11T08:44:05.308Z,41.3
2018-05-11T08:44:55.387Z,40.8
2018-05-11T08:45:45.460Z,39.9
2018-05-11T08:46:35.501Z,39.1
2018-05-11T08:47:25.562Z,38.7
2018-05-11T08:48:15.368Z,38.4
2018-05-11T08:49:05.678Z,37.9
2018-05-11T08:49:55.740Z,37.3
2018-05-11T08:50:45.563Z,36.8
2018-05-11T08:51:35.870Z,36.6
2018-05-11T08:52:25.950Z,36.9
2018-05-11T08:53:15.993Z,37.8
2018-05-11T08:54:05.796Z,38.9
2018-05-11T08:54:56.146Z,39.9
2018-05-11T08:55:46.263Z,40.5
2018-05-11T08:56:36.260Z,40.8
2018-05-11T08:57:26.329Z,40.9
2018-05-11T08:58:15.818Z,41.4
2018-05-11T08:59:06.449Z,42.1
2018-05-11T08:59:56.523Z,43.1
2018-05-11T09:00:46.565Z,43.8
2018-05-11T09:01:36.630Z,44.3
2018-05-11T09:02:26.425Z,44.9
2018-05-11T09:03:16.755Z,45.4
2018-05-11T09:04:06.831Z,45.7
2018-05-11T09:04:56.903Z,46.1
2018-05-11T09:05:46.701Z,46.4
2018-05-11T09:06:37.031Z,46.6
2018-05-11T09:07:26.810Z,46.8
2018-05-11T09:08:17.201Z,47
2018-05-11T09:09:06.630Z,46.6
2018-05-11T09:09:57.258Z,46.2
2018-05-11T09:10:47.334Z,45.9
2018-05-11T09:11:37.419Z,45.4
2018-05-11T09:12:27.490Z,44.9
2018-05-11T09:13:17.518Z,44.3
2018-05-11T09:14:07.309Z,43.9
2018-05-11T09:14:57.639Z,43.6
2018-05-11T09:15:47.430Z,43.1
2018-05-11T09:16:37.782Z,42.7
2018-05-11T09:17:27.837Z,42.1
2018-05-11T09:18:17.976Z,41.7
2018-05-11T09:19:07.981Z,41.5
2018-05-11T09:19:58.021Z,41.4
2018-05-11T09:20:48.195Z,41.1
2018-05-11T09:21:37.882Z,41
2018-05-11T09:22:27.936Z,40.8
2018-05-11T09:23:18.310Z,40.9
2018-05-11T09:24:08.347Z,41.3
2018-05-11T09:24:58.156Z,41.8
2018-05-11T09:25:48.188Z,42.1
2018-05-11T09:26:37.979Z,42.8
2018-05-11T09:27:28.669Z,43.6
2018-05-11T09:28:18.665Z,44.4
2018-05-11T09:29:08.734Z,45.3
2018-05-11T09:29:58.806Z,46
2018-05-11T09:30:48.859Z,46.6
2018-05-11T09:31:38.924Z,46.9
2018-05-11T09:32:28.986Z,47.3
2018-05-11T09:33:19.044Z,47.8
2018-05-11T09:34:09.111Z,48.1
2018-05-11T09:34:59.188Z,48.6
2018-05-11T09:35:49.245Z,49.2
2018-05-11T09:36:39.292Z,49.7
2018-05-11T09:37:29.370Z,49.6
2018-05-11T09:38:19.433Z,49.7
2018-05-11T09:39:09.501Z,49.8
2018-05-11T09:39:59.560Z,49.4
2018-05-11T09:40:49.342Z,49.2
2018-05-11T09:41:39.685Z,49.4
2018-05-11T09:42:29.746Z,49.7
2018-05-11T09:43:19.544Z,49.8
2018-05-11T09:44:09.893Z,49.7
2018-05-11T09:44:59.941Z,49.5
2018-05-11T09:45:49.738Z,49.1
2018-05-11T09:46:39.782Z,49.4
2018-05-11T09:47:30.131Z,49.4
2018-05-11T09:48:20.187Z,49.2
2018-05-11T09:49:09.988Z,49.4
2018-05-11T09:50:00.041Z,49.9
2018-05-11T09:50:50.102Z,50.3
2018-05-11T09:51:40.173Z,50.5
2018-05-11T09:52:30.233Z,50.6
2018-05-11T09:53:19.999Z,50.6
2018-05-11T09:54:10.364Z,50.8
2018-05-11T09:55:00.979Z,51.2
2018-05-11T09:55:50.810Z,51
2018-05-11T09:56:40.854Z,51.1
2018-05-11T09:57:30.906Z,51.6
2018-05-11T09:58:20.962Z,52
2018-05-11T09:59:10.289Z,52.5
2018-05-11T10:00:00.822Z,52.8
2018-05-11T10:00:51.387Z,53.1
2018-05-11T10:01:41.038Z,53.3
2018-05-11T10:02:31.302Z,53.1
2018-05-11T10:03:21.359Z,53.2
2018-05-11T10:04:11.391Z,52.8
2018-05-11T10:05:51.542Z,52.2
2018-05-11T10:06:41.326Z,51.8
2018-05-11T10:07:31.662Z,50.8
2018-05-11T10:08:21.732Z,49.9
2018-05-11T10:09:11.801Z,49.4
2018-05-11T10:10:01.885Z,49.3
2018-05-11T10:10:51.927Z,49.4
2018-05-11T10:11:42.006Z,49.3
2018-05-11T10:12:32.050Z,48.9
2018-05-11T10:13:22.108Z,49.2
2018-05-11T10:14:12.163Z,49.7
2018-05-11T10:15:02.242Z,50.3
2018-05-11T10:15:52.287Z,51.3
2018-05-11T10:16:42.378Z,51.8
2018-05-11T10:17:32.454Z,51.5
2018-05-11T10:18:22.494Z,51.2
2018-05-11T10:19:12.553Z,51.1
2018-05-11T10:20:02.617Z,51.6
2018-05-11T10:20:52.538Z,52.3
2018-05-11T10:22:32.521Z,51.4
2018-05-11T10:23:22.587Z,50.1
2018-05-11T10:24:12.928Z,49
2018-05-11T10:25:02.728Z,47.8
2018-05-11T10:25:53.062Z,47.1
2018-05-11T10:26:43.132Z,46.9
2018-05-11T10:27:33.189Z,46.8
2018-05-11T10:28:23.293Z,47.1
2018-05-11T10:29:13.175Z,46.9
2018-05-11T10:30:03.440Z,46
2018-05-11T10:30:53.466Z,45.6
2018-05-11T10:31:43.502Z,45.5
2018-05-11T10:32:33.272Z,45.9
2018-05-11T10:33:23.632Z,47.1
2018-05-11T10:34:13.699Z,48
2018-05-11T10:35:03.579Z,48.8
2018-05-11T10:35:53.835Z,49.4
2018-05-11T10:36:43.897Z,49.6
2018-05-11T10:37:33.676Z,49.8
2018-05-11T10:38:23.733Z,50.3
2018-05-11T10:39:13.821Z,50.6
2018-05-11T10:40:04.174Z,50.3
2018-05-11T10:40:54.200Z,49.7
2018-05-11T10:41:44.289Z,48.9
2018-05-11T10:42:34.068Z,47.9
2018-05-11T10:43:24.136Z,47.3
2018-05-11T10:44:13.897Z,46.3
2018-05-11T10:45:04.241Z,45.5
2018-05-11T10:45:54.594Z,44.7
2018-05-11T10:46:44.656Z,43.9
2018-05-11T10:47:34.460Z,43.1
2018-05-11T10:48:24.586Z,41.9
2018-05-11T10:49:14.838Z,40.9
2018-05-11T10:50:04.901Z,40.3
2018-05-11T10:50:54.968Z,39.9
2018-05-11T10:51:45.058Z,39.5
2018-05-11T10:52:35.098Z,39.1
2018-05-11T10:53:24.898Z,38.8
2018-05-11T10:54:14.956Z,38.3
2018-05-11T10:55:05.372Z,37.8
2018-05-11T10:55:55.098Z,37.3
2018-05-11T10:56:45.135Z,37
2018-05-11T10:57:35.212Z,36.6
2018-05-11T10:58:25.254Z,36.2
2018-05-11T10:59:15.356Z,35.8
2018-05-11T11:00:05.665Z,35.6
2018-05-11T11:00:55.733Z,35.4
2018-05-11T11:01:45.823Z,35.2
2018-05-11T11:02:35.966Z,35.1
2018-05-11T11:03:25.944Z,35.1
2018-05-11T11:04:15.543Z,35.1
2018-05-11T11:05:06.052Z,35.2
2018-05-11T11:05:56.122Z,35.4
2018-05-11T11:06:45.919Z,35.7
2018-05-11T11:07:36.293Z,36.3
2018-05-11T11:08:26.302Z,37.3
2018-05-11T11:09:16.373Z,38.3
2018-05-11T11:10:06.170Z,38.9
2018-05-11T11:10:56.514Z,39.4
2018-05-11T11:11:46.571Z,39.6
2018-05-11T11:12:36.335Z,39.9